sensor_id;sensor_type;location;lat;lon;timestamp;pressure;altitude;pressure_sealevel;temperature;humidity
70343;BME280;57767;42.068;24.752;2023-11-21T00:00:22;98675.91;;;10.34;49.60
70343;BME280;57767;42.068;24.752;2023-11-21T00:01:23;98684.00;;;10.39;50.07
70343;BME280;57767;42.068;24.752;2023-11-21T00:02:25;98671.84;;;10.38;49.94
70343;BME280;57767;42.068;24.752;2023-11-21T00:03:28;98690.09;;;10.40;49.86
70343;BME280;57767;42.068;24.752;2023-11-21T00:04:30;98677.13;;;10.38;49.67
70343;BME280;57767;42.068;24.752;2023-11-21T00:05:32;98688.25;;;10.40;49.78
70343;BME280;57767;42.068;24.752;2023-11-21T00:06:34;98689.28;;;10.39;49.08
70343;BME280;57767;42.068;24.752;2023-11-21T00:07:38;98681.59;;;10.31;49.59
70343;BME280;57767;42.068;24.752;2023-11-21T00:08:40;98677.53;;;10.35;49.56
70343;BME280;57767;42.068;24.752;2023-11-21T00:09:42;98697.78;;;10.41;50.31
70343;BME280;57767;42.068;24.752;2023-11-21T00:10:43;98688.91;;;10.36;50.10
70343;BME280;57767;42.068;24.752;2023-11-21T00:11:45;98690.13;;;10.33;50.36
70343;BME280;57767;42.068;24.752;2023-11-21T00:12:47;98690.13;;;10.33;49.65
70343;BME280;57767;42.068;24.752;2023-11-21T00:13:49;98688.47;;;10.39;50.01
70343;BME280;57767;42.068;24.752;2023-11-21T00:14:51;98690.09;;;10.40;50.12
70343;BME280;57767;42.068;24.752;2023-11-21T00:15:56;98698.66;;;10.35;50.75
70343;BME280;57767;42.068;24.752;2023-11-21T00:16:59;98684.06;;;10.26;50.16
70343;BME280;57767;42.068;24.752;2023-11-21T00:18:00;98697.44;;;10.31;50.39
70343;BME280;57767;42.068;24.752;2023-11-21T00:19:02;98695.03;;;10.23;50.99
70343;BME280;57767;42.068;24.752;2023-11-21T00:20:08;98686.09;;;10.18;50.78
70343;BME280;57767;42.068;24.752;2023-11-21T00:21:09;98682.03;;;10.15;50.56
70343;BME280;57767;42.068;24.752;2023-11-21T00:22:14;98679.59;;;10.14;51.08
70343;BME280;57767;42.068;24.752;2023-11-21T00:23:17;98673.56;;;10.06;50.82
70343;BME280;57767;42.068;24.752;2023-11-21T00:24:19;98686.50;;;10.15;50.44
70343;BME280;57767;42.068;24.752;2023-11-21T00:25:21;98674.78;;;10.04;50.54
70343;BME280;57767;42.068;24.752;2023-11-21T00:26:23;98674.00;;;9.97;51.15
70343;BME280;57767;42.068;24.752;2023-11-21T00:27:25;98680.84;;;10.11;50.94
70343;BME280;57767;42.068;24.752;2023-11-21T00:28:27;98685.72;;;10.07;50.54
70343;BME280;57767;42.068;24.752;2023-11-21T00:29:29;98680.41;;;10.14;50.58
70343;BME280;57767;42.068;24.752;2023-11-21T00:30:31;98682.84;;;10.16;50.16
70343;BME280;57767;42.068;24.752;2023-11-21T00:31:33;98675.59;;;10.11;50.07
70343;BME280;57767;42.068;24.752;2023-11-21T00:32:37;98681.25;;;10.21;49.94
70343;BME280;57767;42.068;24.752;2023-11-21T00:33:39;98690.16;;;10.14;50.04
70343;BME280;57767;42.068;24.752;2023-11-21T00:34:41;98669.72;;;10.02;50.19
70343;BME280;57767;42.068;24.752;2023-11-21T00:35:44;98672.34;;;10.09;50.30
70343;BME280;57767;42.068;24.752;2023-11-21T00:36:45;98665.44;;;10.08;50.06
70343;BME280;57767;42.068;24.752;2023-11-21T00:37:47;98671.50;;;10.15;50.28
70343;BME280;57767;42.068;24.752;2023-11-21T00:38:51;98661.13;;;10.14;49.68
70343;BME280;57767;42.068;24.752;2023-11-21T00:39:53;98674.16;;;10.22;50.10
70343;BME280;57767;42.068;24.752;2023-11-21T00:40:54;98667.44;;;10.19;50.19
70343;BME280;57767;42.068;24.752;2023-11-21T00:41:57;98670.09;;;10.19;50.46
70343;BME280;57767;42.068;24.752;2023-11-21T00:42:59;98667.84;;;10.23;50.29
70343;BME280;57767;42.068;24.752;2023-11-21T00:44:02;98660.56;;;10.18;50.13
70343;BME280;57767;42.068;24.752;2023-11-21T00:45:05;98672.91;;;10.24;49.13
70343;BME280;57767;42.068;24.752;2023-11-21T00:46:07;98678.56;;;10.28;49.19
70343;BME280;57767;42.068;24.752;2023-11-21T00:47:09;98675.56;;;10.24;49.46
70343;BME280;57767;42.068;24.752;2023-11-21T00:48:11;98681.41;;;10.26;50.12
70343;BME280;57767;42.068;24.752;2023-11-21T00:49:15;98671.66;;;10.27;49.01
70343;BME280;57767;42.068;24.752;2023-11-21T00:50:16;98675.16;;;10.21;49.61
70343;BME280;57767;42.068;24.752;2023-11-21T00:51:18;98675.75;;;10.16;50.13
70343;BME280;57767;42.068;24.752;2023-11-21T00:52:20;98673.16;;;10.10;49.81
70343;BME280;57767;42.068;24.752;2023-11-21T00:53:21;98654.69;;;10.03;50.24
70343;BME280;57767;42.068;24.752;2023-11-21T00:54:23;98665.44;;;10.08;50.50
70343;BME280;57767;42.068;24.752;2023-11-21T00:55:25;98670.31;;;10.11;50.27
70343;BME280;57767;42.068;24.752;2023-11-21T00:56:28;98670.72;;;10.08;50.06
70343;BME280;57767;42.068;24.752;2023-11-21T00:57:30;98668.94;;;9.89;51.16
70343;BME280;57767;42.068;24.752;2023-11-21T00:58:31;98676.47;;;9.79;51.37
70343;BME280;57767;42.068;24.752;2023-11-21T00:59:33;98683.00;;;9.69;51.44
70343;BME280;57767;42.068;24.752;2023-11-21T01:00:35;98680.34;;;9.63;51.99
70343;BME280;57767;42.068;24.752;2023-11-21T01:01:37;98684.88;;;9.49;51.87
70343;BME280;57767;42.068;24.752;2023-11-21T01:02:39;98674.72;;;9.46;51.83
70343;BME280;57767;42.068;24.752;2023-11-21T01:03:41;98679.16;;;9.52;52.10
70343;BME280;57767;42.068;24.752;2023-11-21T01:04:42;98673.28;;;9.50;52.44
70343;BME280;57767;42.068;24.752;2023-11-21T01:05:45;98685.25;;;9.40;52.76
70343;BME280;57767;42.068;24.752;2023-11-21T01:06:47;98679.38;;;9.38;52.34
70343;BME280;57767;42.068;24.752;2023-11-21T01:07:49;98662.81;;;9.24;53.07
70343;BME280;57767;42.068;24.752;2023-11-21T01:08:50;98672.13;;;9.20;53.36
70343;BME280;57767;42.068;24.752;2023-11-21T01:09:52;98674.53;;;9.15;53.92
70343;BME280;57767;42.068;24.752;2023-11-21T01:10:54;98675.53;;;9.01;53.92
70343;BME280;57767;42.068;24.752;2023-11-21T01:11:56;98683.06;;;9.04;53.63
70343;BME280;57767;42.068;24.752;2023-11-21T01:12:58;98661.38;;;9.02;54.35
70343;BME280;57767;42.068;24.752;2023-11-21T01:14:00;98678.78;;;9.03;54.38
70343;BME280;57767;42.068;24.752;2023-11-21T01:15:01;98680.22;;;8.98;54.25
70343;BME280;57767;42.068;24.752;2023-11-21T01:16:03;98677.59;;;8.98;54.75
70343;BME280;57767;42.068;24.752;2023-11-21T01:17:05;98678.19;;;9.01;54.82
70343;BME280;57767;42.068;24.752;2023-11-21T01:18:07;98689.34;;;8.96;54.49
70343;BME280;57767;42.068;24.752;2023-11-21T01:19:10;98683.22;;;8.89;54.91
70343;BME280;57767;42.068;24.752;2023-11-21T01:20:11;98665.81;;;8.81;55.45
70343;BME280;57767;42.068;24.752;2023-11-21T01:21:15;98677.38;;;8.93;54.72
70343;BME280;57767;42.068;24.752;2023-11-21T01:22:17;98680.22;;;8.98;55.04
70343;BME280;57767;42.068;24.752;2023-11-21T01:23:19;98680.22;;;8.98;54.80
70343;BME280;57767;42.068;24.752;2023-11-21T01:24:21;98681.63;;;8.94;54.80
70343;BME280;57767;42.068;24.752;2023-11-21T01:25:23;98677.38;;;8.93;55.11
70343;BME280;57767;42.068;24.752;2023-11-21T01:26:24;98671.88;;;8.88;55.32
70343;BME280;57767;42.068;24.752;2023-11-21T01:27:26;98663.97;;;8.75;55.27
70343;BME280;57767;42.068;24.752;2023-11-21T01:28:28;98664.59;;;8.71;55.37
70343;BME280;57767;42.068;24.752;2023-11-21T01:29:30;98658.72;;;8.69;55.91
70343;BME280;57767;42.068;24.752;2023-11-21T01:30:31;98671.47;;;8.78;55.60
70343;BME280;57767;42.068;24.752;2023-11-21T01:31:33;98676.16;;;8.83;55.34
70343;BME280;57767;42.068;24.752;2023-11-21T01:32:36;98661.16;;;8.77;55.26
70343;BME280;57767;42.068;24.752;2023-11-21T01:33:38;98669.69;;;8.85;55.46
70343;BME280;57767;42.068;24.752;2023-11-21T01:34:40;98675.75;;;8.86;55.43
70343;BME280;57767;42.068;24.752;2023-11-21T01:35:42;98673.72;;;8.88;55.52
70343;BME280;57767;42.068;24.752;2023-11-21T01:36:45;98668.44;;;8.88;55.87
70343;BME280;57767;42.068;24.752;2023-11-21T01:37:47;98661.56;;;8.80;55.39
70343;BME280;57767;42.068;24.752;2023-11-21T01:38:49;98670.50;;;8.86;55.06
70343;BME280;57767;42.068;24.752;2023-11-21T01:39:51;98655.69;;;8.78;55.00
70343;BME280;57767;42.068;24.752;2023-11-21T01:40:53;98671.69;;;8.83;54.88
70343;BME280;57767;42.068;24.752;2023-11-21T01:41:54;98668.44;;;8.75;55.24
70343;BME280;57767;42.068;24.752;2023-11-21T01:42:56;98682.59;;;8.67;55.45
70343;BME280;57767;42.068;24.752;2023-11-21T01:43:58;98665.59;;;8.56;55.26
70343;BME280;57767;42.068;24.752;2023-11-21T01:45:01;98672.66;;;8.56;55.65
70343;BME280;57767;42.068;24.752;2023-11-21T01:46:05;98671.00;;;8.42;56.32
70343;BME280;57767;42.068;24.752;2023-11-21T01:47:08;98677.28;;;8.34;56.60
70343;BME280;57767;42.068;24.752;2023-11-21T01:48:11;98676.19;;;8.28;56.65
70343;BME280;57767;42.068;24.752;2023-11-21T01:49:15;98685.09;;;8.27;56.86
70343;BME280;57767;42.068;24.752;2023-11-21T01:50:17;98671.13;;;8.27;56.82
70343;BME280;57767;42.068;24.752;2023-11-21T01:51:19;98675.56;;;8.26;56.56
70343;BME280;57767;42.068;24.752;2023-11-21T01:52:21;98674.75;;;8.26;57.30
70343;BME280;57767;42.068;24.752;2023-11-21T01:53:25;98668.88;;;8.24;57.34
70343;BME280;57767;42.068;24.752;2023-11-21T01:54:27;98675.56;;;8.26;57.07
70343;BME280;57767;42.068;24.752;2023-11-21T01:55:32;98687.72;;;8.27;57.26
70343;BME280;57767;42.068;24.752;2023-11-21T01:56:35;98662.81;;;8.23;57.12
70343;BME280;57767;42.068;24.752;2023-11-21T01:57:37;98668.88;;;8.24;57.52
70343;BME280;57767;42.068;24.752;2023-11-21T01:58:39;98647.19;;;8.09;57.63
70343;BME280;57767;42.068;24.752;2023-11-21T01:59:42;98667.88;;;8.18;58.26
70343;BME280;57767;42.068;24.752;2023-11-21T02:00:44;98669.50;;;8.19;58.34
70343;BME280;57767;42.068;24.752;2023-11-21T02:01:45;98671.31;;;8.19;58.13
70343;BME280;57767;42.068;24.752;2023-11-21T02:02:48;98667.00;;;8.11;58.08
70343;BME280;57767;42.068;24.752;2023-11-21T02:03:50;98667.63;;;8.13;58.38
70343;BME280;57767;42.068;24.752;2023-11-21T02:04:52;98673.91;;;8.12;58.49
70343;BME280;57767;42.068;24.752;2023-11-21T02:05:54;98660.50;;;7.94;58.63
70343;BME280;57767;42.068;24.752;2023-11-21T02:06:55;98670.63;;;7.97;59.01
70343;BME280;57767;42.068;24.752;2023-11-21T02:07:57;98661.31;;;7.95;59.63
70343;BME280;57767;42.068;24.752;2023-11-21T02:08:59;98665.13;;;7.99;59.61
70343;BME280;57767;42.068;24.752;2023-11-21T02:10:01;98659.03;;;7.85;60.08
70343;BME280;57767;42.068;24.752;2023-11-21T02:11:03;98663.63;;;7.76;60.71
70343;BME280;57767;42.068;24.752;2023-11-21T02:12:05;98659.09;;;7.57;61.73
70343;BME280;57767;42.068;24.752;2023-11-21T02:13:06;98674.03;;;7.57;61.67
70343;BME280;57767;42.068;24.752;2023-11-21T02:14:08;98662.84;;;7.48;62.14
70343;BME280;57767;42.068;24.752;2023-11-21T02:15:12;98670.34;;;7.51;62.20
70343;BME280;57767;42.068;24.752;2023-11-21T02:16:21;98670.25;;;7.38;62.58
70343;BME280;57767;42.068;24.752;2023-11-21T02:17:23;98665.78;;;7.32;63.01
70343;BME280;57767;42.068;24.752;2023-11-21T02:18:25;98671.25;;;7.37;62.71
70343;BME280;57767;42.068;24.752;2023-11-21T02:19:27;98667.06;;;7.42;62.93
70343;BME280;57767;42.068;24.752;2023-11-21T02:20:31;98670.22;;;7.31;62.77
70343;BME280;57767;42.068;24.752;2023-11-21T02:21:36;98650.16;;;7.24;62.86
70343;BME280;57767;42.068;24.752;2023-11-21T02:22:42;98658.09;;;7.30;62.49
70343;BME280;57767;42.068;24.752;2023-11-21T02:23:44;98666.59;;;7.32;62.86
70343;BME280;57767;42.068;24.752;2023-11-21T02:24:48;98669.59;;;7.29;62.38
70343;BME280;57767;42.068;24.752;2023-11-21T02:25:49;98643.63;;;7.13;62.82
70343;BME280;57767;42.068;24.752;2023-11-21T02:26:52;98663.69;;;7.21;63.02
70343;BME280;57767;42.068;24.752;2023-11-21T02:27:54;98667.94;;;7.22;62.94
70343;BME280;57767;42.068;24.752;2023-11-21T02:28:56;98674.38;;;7.19;63.19
70343;BME280;57767;42.068;24.752;2023-11-21T02:29:59;98668.50;;;7.17;63.35
70343;BME280;57767;42.068;24.752;2023-11-21T02:31:02;98659.81;;;7.16;63.16
70343;BME280;57767;42.068;24.752;2023-11-21T02:32:06;98660.44;;;7.18;62.53
70343;BME280;57767;42.068;24.752;2023-11-21T02:33:07;98661.88;;;7.21;62.82
70343;BME280;57767;42.068;24.752;2023-11-21T02:34:09;98667.34;;;7.26;63.03
70343;BME280;57767;42.068;24.752;2023-11-21T02:35:11;98670.59;;;7.28;62.91
70343;BME280;57767;42.068;24.752;2023-11-21T02:36:13;98671.22;;;7.30;62.61
70343;BME280;57767;42.068;24.752;2023-11-21T02:37:15;98655.84;;;7.27;62.44
70343;BME280;57767;42.068;24.752;2023-11-21T02:38:17;98658.22;;;7.22;62.55
70343;BME280;57767;42.068;24.752;2023-11-21T02:39:18;98665.16;;;7.30;62.60
70343;BME280;57767;42.068;24.752;2023-11-21T02:40:23;98663.34;;;7.30;62.31
70343;BME280;57767;42.068;24.752;2023-11-21T02:41:26;98665.53;;;7.27;62.64
70343;BME280;57767;42.068;24.752;2023-11-21T02:42:28;98662.28;;;7.25;62.49
70343;BME280;57767;42.068;24.752;2023-11-21T02:43:29;98655.22;;;7.25;62.73
70343;BME280;57767;42.068;24.752;2023-11-21T02:44:33;98660.72;;;7.30;62.20
70343;BME280;57767;42.068;24.752;2023-11-21T02:45:35;98659.72;;;7.31;62.45
70343;BME280;57767;42.068;24.752;2023-11-21T02:46:37;98664.34;;;7.29;62.48
70343;BME280;57767;42.068;24.752;2023-11-21T02:47:39;98647.94;;;7.21;62.43
70343;BME280;57767;42.068;24.752;2023-11-21T02:48:41;98656.66;;;7.28;63.15
70343;BME280;57767;42.068;24.752;2023-11-21T02:49:42;98661.25;;;7.19;63.54
70343;BME280;57767;42.068;24.752;2023-11-21T02:50:44;98661.25;;;7.19;63.53
70343;BME280;57767;42.068;24.752;2023-11-21T02:51:46;98666.91;;;7.23;63.85
70343;BME280;57767;42.068;24.752;2023-11-21T02:52:47;98671.16;;;7.24;63.79
70343;BME280;57767;42.068;24.752;2023-11-21T02:53:49;98671.16;;;7.24;63.53
70343;BME280;57767;42.068;24.752;2023-11-21T02:54:52;98654.50;;;7.10;63.20
70343;BME280;57767;42.068;24.752;2023-11-21T02:55:54;98674.78;;;7.23;63.04
70343;BME280;57767;42.068;24.752;2023-11-21T02:56:56;98678.22;;;7.23;63.57
70343;BME280;57767;42.068;24.752;2023-11-21T02:57:58;98674.19;;;7.21;63.47
70343;BME280;57767;42.068;24.752;2023-11-21T02:59:00;98670.69;;;7.13;63.87
70343;BME280;57767;42.068;24.752;2023-11-21T03:00:02;98677.81;;;7.19;63.42
70343;BME280;57767;42.068;24.752;2023-11-21T03:01:04;98676.53;;;7.09;63.97
70343;BME280;57767;42.068;24.752;2023-11-21T03:02:06;98675.28;;;7.05;64.19
70343;BME280;57767;42.068;24.752;2023-11-21T03:03:09;98677.59;;;6.93;64.48
70343;BME280;57767;42.068;24.752;2023-11-21T03:04:12;98685.34;;;7.01;63.90
70343;BME280;57767;42.068;24.752;2023-11-21T03:05:19;98694.66;;;7.04;64.30
70343;BME280;57767;42.068;24.752;2023-11-21T03:06:21;98690.03;;;7.06;63.91
70343;BME280;57767;42.068;24.752;2023-11-21T03:07:23;98689.25;;;7.12;64.93
70343;BME280;57767;42.068;24.752;2023-11-21T03:08:24;98684.81;;;7.12;65.15
70343;BME280;57767;42.068;24.752;2023-11-21T03:09:26;98682.16;;;7.06;64.69
70343;BME280;57767;42.068;24.752;2023-11-21T03:10:28;98674.97;;;6.93;64.90
70343;BME280;57767;42.068;24.752;2023-11-21T03:11:29;98675.78;;;6.94;65.36
70343;BME280;57767;42.068;24.752;2023-11-21T03:12:31;98677.59;;;6.93;65.07
70343;BME280;57767;42.068;24.752;2023-11-21T03:13:33;98677.53;;;6.87;65.63
70343;BME280;57767;42.068;24.752;2023-11-21T03:14:34;98671.06;;;6.82;65.49
70343;BME280;57767;42.068;24.752;2023-11-21T03:15:36;98679.97;;;6.88;65.09
70343;BME280;57767;42.068;24.752;2023-11-21T03:16:38;98676.41;;;6.96;65.38
70343;BME280;57767;42.068;24.752;2023-11-21T03:17:42;98677.78;;;6.92;65.62
70343;BME280;57767;42.068;24.752;2023-11-21T03:18:44;98671.91;;;6.90;65.35
70343;BME280;57767;42.068;24.752;2023-11-21T03:19:46;98672.91;;;6.89;65.22
70343;BME280;57767;42.068;24.752;2023-11-21T03:20:47;98669.47;;;6.88;65.32
70343;BME280;57767;42.068;24.752;2023-11-21T03:21:49;98645.91;;;6.73;65.52
70343;BME280;57767;42.068;24.752;2023-11-21T03:22:51;98672.69;;;6.83;65.41
70343;BME280;57767;42.068;24.752;2023-11-21T03:23:53;98652.75;;;6.68;65.69
70343;BME280;57767;42.068;24.752;2023-11-21T03:24:54;98651.97;;;6.74;65.38
70343;BME280;57767;42.068;24.752;2023-11-21T03:25:56;98671.66;;;6.84;65.16
70343;BME280;57767;42.068;24.752;2023-11-21T03:26:58;98676.53;;;6.88;65.29
70343;BME280;57767;42.068;24.752;2023-11-21T03:27:59;98682.41;;;6.90;64.95
70343;BME280;57767;42.068;24.752;2023-11-21T03:29:01;98673.28;;;6.86;65.32
70343;BME280;57767;42.068;24.752;2023-11-21T03:30:03;98673.09;;;6.87;65.06
70343;BME280;57767;42.068;24.752;2023-11-21T03:31:08;98685.03;;;6.90;64.96
70343;BME280;57767;42.068;24.752;2023-11-21T03:32:10;98683.59;;;6.87;65.30
70343;BME280;57767;42.068;24.752;2023-11-21T03:33:13;98678.53;;;6.86;65.39
70343;BME280;57767;42.068;24.752;2023-11-21T03:34:23;98683.22;;;6.90;65.28
70343;BME280;57767;42.068;24.752;2023-11-21T03:35:25;98682.84;;;6.93;65.12
70343;BME280;57767;42.068;24.752;2023-11-21T03:36:27;98678.59;;;6.92;65.31
70343;BME280;57767;42.068;24.752;2023-11-21T03:37:29;98678.34;;;6.87;65.67
70343;BME280;57767;42.068;24.752;2023-11-21T03:38:31;98686.03;;;6.89;65.95
70343;BME280;57767;42.068;24.752;2023-11-21T03:39:32;98679.34;;;6.86;65.18
70343;BME280;57767;42.068;24.752;2023-11-21T03:40:34;98674.50;;;6.83;65.92
70343;BME280;57767;42.068;24.752;2023-11-21T03:41:36;98686.59;;;6.84;65.86
70343;BME280;57767;42.068;24.752;2023-11-21T03:42:38;98692.03;;;6.82;65.68
70343;BME280;57767;42.068;24.752;2023-11-21T03:43:40;98681.72;;;6.81;65.92
70343;BME280;57767;42.068;24.752;2023-11-21T03:44:41;98687.97;;;6.80;65.04
70343;BME280;57767;42.068;24.752;2023-11-21T03:45:43;98684.09;;;6.76;65.63
70343;BME280;57767;42.068;24.752;2023-11-21T03:46:45;98675.03;;;6.78;65.54
70343;BME280;57767;42.068;24.752;2023-11-21T03:47:46;98677.66;;;6.78;65.58
70343;BME280;57767;42.068;24.752;2023-11-21T03:48:48;98681.47;;;6.76;65.54
70343;BME280;57767;42.068;24.752;2023-11-21T03:49:50;98680.22;;;6.72;65.54
70343;BME280;57767;42.068;24.752;2023-11-21T03:50:51;98686.53;;;6.77;66.03
70343;BME280;57767;42.068;24.752;2023-11-21T03:51:53;98689.97;;;6.78;66.30
70343;BME280;57767;42.068;24.752;2023-11-21T03:52:55;98685.09;;;6.75;66.41
70343;BME280;57767;42.068;24.752;2023-11-21T03:53:56;98700.47;;;6.78;66.54
70343;BME280;57767;42.068;24.752;2023-11-21T03:54:58;98691.16;;;6.75;65.95
70343;BME280;57767;42.068;24.752;2023-11-21T03:56:02;98687.66;;;6.68;66.59
70343;BME280;57767;42.068;24.752;2023-11-21T03:57:04;98686.66;;;6.69;66.46
70343;BME280;57767;42.068;24.752;2023-11-21T03:58:06;98688.91;;;6.72;66.81
70343;BME280;57767;42.068;24.752;2023-11-21T03:59:07;98684.66;;;6.71;66.49
70343;BME280;57767;42.068;24.752;2023-11-21T04:00:10;98677.19;;;6.68;66.74
70343;BME280;57767;42.068;24.752;2023-11-21T04:01:12;98685.47;;;6.72;66.56
70343;BME280;57767;42.068;24.752;2023-11-21T04:02:13;98693.53;;;6.70;66.37
70343;BME280;57767;42.068;24.752;2023-11-21T04:03:15;98690.28;;;6.68;66.54
70343;BME280;57767;42.068;24.752;2023-11-21T04:04:17;98686.84;;;6.68;66.71
70343;BME280;57767;42.068;24.752;2023-11-21T04:05:20;98685.41;;;6.65;66.29
70343;BME280;57767;42.068;24.752;2023-11-21T04:06:23;98704.91;;;6.77;65.86
70343;BME280;57767;42.068;24.752;2023-11-21T04:07:25;98697.66;;;6.79;66.04
70343;BME280;57767;42.068;24.752;2023-11-21T04:08:26;98700.91;;;6.81;65.62
70343;BME280;57767;42.068;24.752;2023-11-21T04:09:28;98700.91;;;6.81;65.55
70343;BME280;57767;42.068;24.752;2023-11-21T04:10:30;98692.78;;;6.76;65.60
70343;BME280;57767;42.068;24.752;2023-11-21T04:11:31;98693.78;;;6.75;65.73
70343;BME280;57767;42.068;24.752;2023-11-21T04:12:33;98703.53;;;6.81;65.44
70343;BME280;57767;42.068;24.752;2023-11-21T04:13:35;98704.94;;;6.84;65.42
70343;BME280;57767;42.068;24.752;2023-11-21T04:14:36;98712.81;;;6.84;65.59
70343;BME280;57767;42.068;24.752;2023-11-21T04:15:38;98701.91;;;6.80;66.04
70343;BME280;57767;42.068;24.752;2023-11-21T04:16:40;98710.47;;;6.89;65.71
70343;BME280;57767;42.068;24.752;2023-11-21T04:17:42;98710.84;;;6.86;65.49
70343;BME280;57767;42.068;24.752;2023-11-21T04:18:44;98699.91;;;6.82;65.56
70343;BME280;57767;42.068;24.752;2023-11-21T04:19:46;98696.09;;;6.85;65.20
70343;BME280;57767;42.068;24.752;2023-11-21T04:20:51;98703.59;;;6.88;65.42
70343;BME280;57767;42.068;24.752;2023-11-21T04:21:52;98694.03;;;6.80;65.86
70343;BME280;57767;42.068;24.752;2023-11-21T04:22:54;98702.31;;;6.84;65.96
70343;BME280;57767;42.068;24.752;2023-11-21T04:23:55;98691.41;;;6.80;65.71
70343;BME280;57767;42.068;24.752;2023-11-21T04:24:57;98692.97;;;6.75;65.88
70343;BME280;57767;42.068;24.752;2023-11-21T04:25:59;98697.03;;;6.77;66.35
70343;BME280;57767;42.068;24.752;2023-11-21T04:27:01;98701.66;;;6.75;65.91
70343;BME280;57767;42.068;24.752;2023-11-21T04:28:04;98696.22;;;6.77;66.21
70343;BME280;57767;42.068;24.752;2023-11-21T04:29:05;98696.66;;;6.80;66.72
70343;BME280;57767;42.068;24.752;2023-11-21T04:30:07;98690.59;;;6.80;66.28
70343;BME280;57767;42.068;24.752;2023-11-21T04:31:09;98691.16;;;6.75;66.03
70343;BME280;57767;42.068;24.752;2023-11-21T04:32:11;98656.25;;;6.54;66.01
70343;BME280;57767;42.068;24.752;2023-11-21T04:33:14;98701.47;;;6.77;66.36
70343;BME280;57767;42.068;24.752;2023-11-21T04:34:15;98695.22;;;6.78;66.34
70343;BME280;57767;42.068;24.752;2023-11-21T04:35:17;98691.78;;;6.77;66.41
70343;BME280;57767;42.068;24.752;2023-11-21T04:36:19;98697.66;;;6.79;65.89
70343;BME280;57767;42.068;24.752;2023-11-21T04:37:21;98706.16;;;6.81;65.93
70343;BME280;57767;42.068;24.752;2023-11-21T04:38:22;98703.28;;;6.76;66.04
70343;BME280;57767;42.068;24.752;2023-11-21T04:39:24;98708.16;;;6.79;66.31
70343;BME280;57767;42.068;24.752;2023-11-21T04:40:26;98712.97;;;6.76;66.29
70343;BME280;57767;42.068;24.752;2023-11-21T04:41:28;98713.59;;;6.78;66.06
70343;BME280;57767;42.068;24.752;2023-11-21T04:42:30;98704.03;;;6.70;66.12
70343;BME280;57767;42.068;24.752;2023-11-21T04:43:32;98705.44;;;6.73;65.76
70343;BME280;57767;42.068;24.752;2023-11-21T04:44:33;98709.34;;;6.77;65.87
70343;BME280;57767;42.068;24.752;2023-11-21T04:45:35;98708.72;;;6.75;66.53
70343;BME280;57767;42.068;24.752;2023-11-21T04:46:37;98697.16;;;6.69;65.78
70343;BME280;57767;42.068;24.752;2023-11-21T04:47:38;98706.78;;;6.83;65.96
70343;BME280;57767;42.068;24.752;2023-11-21T04:48:40;98713.03;;;6.82;65.63
70343;BME280;57767;42.068;24.752;2023-11-21T04:49:42;98705.28;;;6.74;66.39
70343;BME280;57767;42.068;24.752;2023-11-21T04:50:44;98684.59;;;6.65;65.88
70343;BME280;57767;42.068;24.752;2023-11-21T04:51:46;98704.72;;;6.79;65.76
70343;BME280;57767;42.068;24.752;2023-11-21T04:52:48;98716.03;;;6.79;66.04
70343;BME280;57767;42.068;24.752;2023-11-21T04:53:49;98711.22;;;6.83;66.09
70343;BME280;57767;42.068;24.752;2023-11-21T04:54:51;98709.03;;;6.87;65.90
70343;BME280;57767;42.068;24.752;2023-11-21T04:55:55;98712.91;;;6.91;65.34
70343;BME280;57767;42.068;24.752;2023-11-21T04:56:57;98703.41;;;6.90;65.03
70343;BME280;57767;42.068;24.752;2023-11-21T04:58:00;98706.03;;;6.90;65.44
70343;BME280;57767;42.068;24.752;2023-11-21T04:59:01;98703.03;;;6.93;65.52
70343;BME280;57767;42.068;24.752;2023-11-21T05:00:03;98701.59;;;6.90;65.04
70343;BME280;57767;42.068;24.752;2023-11-21T05:01:07;98704.41;;;6.89;65.26
70343;BME280;57767;42.068;24.752;2023-11-21T05:02:10;98701.53;;;6.83;65.48
70343;BME280;57767;42.068;24.752;2023-11-21T05:03:28;98698.28;;;6.81;65.05
70343;BME280;57767;42.068;24.752;2023-11-21T05:04:31;98703.72;;;6.80;65.27
70343;BME280;57767;42.068;24.752;2023-11-21T05:05:33;98712.41;;;6.80;64.89
70343;BME280;57767;42.068;24.752;2023-11-21T05:06:37;98709.59;;;6.82;65.11
70343;BME280;57767;42.068;24.752;2023-11-21T05:07:39;98704.53;;;6.80;65.24
70343;BME280;57767;42.068;24.752;2023-11-21T05:08:42;98707.41;;;6.86;64.68
70343;BME280;57767;42.068;24.752;2023-11-21T05:09:43;98709.03;;;6.87;64.65
70343;BME280;57767;42.068;24.752;2023-11-21T05:10:47;98708.66;;;6.90;64.56
70343;BME280;57767;42.068;24.752;2023-11-21T05:11:49;98704.41;;;6.89;64.00
70343;BME280;57767;42.068;24.752;2023-11-21T05:12:51;98707.28;;;6.94;64.48
70343;BME280;57767;42.068;24.752;2023-11-21T05:13:53;98707.09;;;6.95;63.79
70343;BME280;57767;42.068;24.752;2023-11-21T05:14:55;98711.13;;;6.98;63.60
70343;BME280;57767;42.068;24.752;2023-11-21T05:15:56;98711.78;;;7.00;63.67
70343;BME280;57767;42.068;24.752;2023-11-21T05:17:01;98716.03;;;7.01;63.78
70343;BME280;57767;42.068;24.752;2023-11-21T05:18:02;98705.28;;;6.96;64.08
70343;BME280;57767;42.068;24.752;2023-11-21T05:19:04;98711.13;;;6.98;64.14
70343;BME280;57767;42.068;24.752;2023-11-21T05:20:07;98707.91;;;6.96;64.15
70343;BME280;57767;42.068;24.752;2023-11-21T05:21:11;98702.44;;;6.97;63.58
70343;BME280;57767;42.068;24.752;2023-11-21T05:22:12;98708.97;;;7.01;63.36
70343;BME280;57767;42.068;24.752;2023-11-21T05:23:14;98705.53;;;7.01;63.67
70343;BME280;57767;42.068;24.752;2023-11-21T05:24:16;98709.34;;;6.98;63.54
70343;BME280;57767;42.068;24.752;2023-11-21T05:25:17;98708.78;;;7.03;63.71
70343;BME280;57767;42.068;24.752;2023-11-21T05:26:22;98706.34;;;7.01;64.07
70343;BME280;57767;42.068;24.752;2023-11-21T05:27:24;98709.78;;;7.02;64.08
70343;BME280;57767;42.068;24.752;2023-11-21T05:28:26;98700.41;;;6.93;64.55